sensor_id;sensor_type;location;lat;lon;timestamp;P1;durP1;ratioP1;P2;durP2;ratioP2
59786;SDS011;45672;51.612;5.536;2023-08-30T00:00:03;7.85;;;7.15;;
59786;SDS011;45672;51.612;5.536;2023-08-30T00:02:28;10.30;;;7.43;;
59786;SDS011;45672;51.612;5.536;2023-08-30T00:04:58;8.27;;;7.28;;
59786;SDS011;45672;51.612;5.536;2023-08-30T00:07:24;9.13;;;7.72;;
59786;SDS011;45672;51.612;5.536;2023-08-30T00:09:49;9.65;;;7.60;;
59786;SDS011;45672;51.612;5.536;2023-08-30T00:12:15;8.63;;;7.43;;
59786;SDS011;45672;51.612;5.536;2023-08-30T00:14:40;8.68;;;7.78;;
59786;SDS011;45672;51.612;5.536;2023-08-30T00:17:06;10.02;;;7.47;;
59786;SDS011;45672;51.612;5.536;2023-08-30T00:19:31;8.40;;;7.60;;
59786;SDS011;45672;51.612;5.536;2023-08-30T00:21:57;10.68;;;7.63;;
59786;SDS011;45672;51.612;5.536;2023-08-30T00:24:22;8.32;;;7.63;;
59786;SDS011;45672;51.612;5.536;2023-08-30T00:26:48;10.25;;;7.45;;
59786;SDS011;45672;51.612;5.536;2023-08-30T00:29:13;9.90;;;8.07;;
59786;SDS011;45672;51.612;5.536;2023-08-30T00:31:38;10.75;;;7.93;;
59786;SDS011;45672;51.612;5.536;2023-08-30T00:34:04;9.10;;;8.20;;
59786;SDS011;45672;51.612;5.536;2023-08-30T00:36:29;9.43;;;8.35;;
59786;SDS011;45672;51.612;5.536;2023-08-30T00:38:54;9.25;;;8.20;;
59786;SDS011;45672;51.612;5.536;2023-08-30T00:41:20;10.52;;;7.95;;
59786;SDS011;45672;51.612;5.536;2023-08-30T00:43:45;13.85;;;8.20;;
59786;SDS011;45672;51.612;5.536;2023-08-30T00:46:10;8.93;;;8.02;;
59786;SDS011;45672;51.612;5.536;2023-08-30T00:48:36;8.75;;;7.95;;
59786;SDS011;45672;51.612;5.536;2023-08-30T00:51:01;12.02;;;8.40;;
59786;SDS011;45672;51.612;5.536;2023-08-30T00:53:27;9.07;;;8.18;;
59786;SDS011;45672;51.612;5.536;2023-08-30T00:55:52;9.57;;;8.20;;
59786;SDS011;45672;51.612;5.536;2023-08-30T00:58:18;10.10;;;8.02;;
59786;SDS011;45672;51.612;5.536;2023-08-30T01:00:43;9.48;;;8.57;;
59786;SDS011;45672;51.612;5.536;2023-08-30T01:03:09;10.77;;;8.65;;
59786;SDS011;45672;51.612;5.536;2023-08-30T01:05:34;9.73;;;8.75;;
59786;SDS011;45672;51.612;5.536;2023-08-30T01:08:00;9.70;;;8.73;;
59786;SDS011;45672;51.612;5.536;2023-08-30T01:10:27;9.77;;;8.55;;
59786;SDS011;45672;51.612;5.536;2023-08-30T01:13:08;10.02;;;8.70;;
59786;SDS011;45672;51.612;5.536;2023-08-30T01:15:37;9.32;;;8.20;;
59786;SDS011;45672;51.612;5.536;2023-08-30T01:18:04;10.55;;;9.27;;
59786;SDS011;45672;51.612;5.536;2023-08-30T01:20:30;10.70;;;8.32;;
59786;SDS011;45672;51.612;5.536;2023-08-30T01:25:45;9.50;;;8.13;;
59786;SDS011;45672;51.612;5.536;2023-08-30T01:28:19;10.32;;;8.93;;
59786;SDS011;45672;51.612;5.536;2023-08-30T01:30:48;11.05;;;9.57;;
59786;SDS011;45672;51.612;5.536;2023-08-30T01:33:14;10.80;;;9.52;;
59786;SDS011;45672;51.612;5.536;2023-08-30T01:35:42;12.52;;;8.90;;
59786;SDS011;45672;51.612;5.536;2023-08-30T01:38:09;10.73;;;8.98;;
59786;SDS011;45672;51.612;5.536;2023-08-30T01:40:35;9.52;;;8.55;;
59786;SDS011;45672;51.612;5.536;2023-08-30T01:43:02;9.75;;;8.68;;
59786;SDS011;45672;51.612;5.536;2023-08-30T01:45:30;10.73;;;8.95;;
59786;SDS011;45672;51.612;5.536;2023-08-30T01:47:57;11.38;;;8.63;;
59786;SDS011;45672;51.612;5.536;2023-08-30T01:50:22;11.70;;;9.02;;
59786;SDS011;45672;51.612;5.536;2023-08-30T01:52:48;14.93;;;8.95;;
59786;SDS011;45672;51.612;5.536;2023-08-30T01:55:15;9.93;;;8.98;;
59786;SDS011;45672;51.612;5.536;2023-08-30T01:57:43;10.35;;;9.23;;
59786;SDS011;45672;51.612;5.536;2023-08-30T02:00:08;11.15;;;9.60;;
59786;SDS011;45672;51.612;5.536;2023-08-30T02:02:34;12.43;;;9.02;;
59786;SDS011;45672;51.612;5.536;2023-08-30T02:05:01;13.82;;;9.38;;
59786;SDS011;45672;51.612;5.536;2023-08-30T02:07:36;11.80;;;9.15;;
59786;SDS011;45672;51.612;5.536;2023-08-30T02:10:21;10.23;;;8.73;;
59786;SDS011;45672;51.612;5.536;2023-08-30T02:12:53;10.27;;;9.05;;
59786;SDS011;45672;51.612;5.536;2023-08-30T02:15:20;11.65;;;9.05;;
59786;SDS011;45672;51.612;5.536;2023-08-30T02:17:49;10.27;;;8.55;;
59786;SDS011;45672;51.612;5.536;2023-08-30T02:20:15;14.02;;;9.77;;
59786;SDS011;45672;51.612;5.536;2023-08-30T02:22:41;11.88;;;9.13;;
59786;SDS011;45672;51.612;5.536;2023-08-30T02:25:06;10.63;;;9.18;;
59786;SDS011;45672;51.612;5.536;2023-08-30T02:27:33;12.13;;;8.95;;
59786;SDS011;45672;51.612;5.536;2023-08-30T02:29:59;13.45;;;9.48;;
59786;SDS011;45672;51.612;5.536;2023-08-30T02:32:25;9.65;;;8.68;;
59786;SDS011;45672;51.612;5.536;2023-08-30T02:34:50;13.50;;;9.02;;
59786;SDS011;45672;51.612;5.536;2023-08-30T02:37:17;10.10;;;9.10;;
59786;SDS011;45672;51.612;5.536;2023-08-30T02:39:43;9.30;;;8.43;;
59786;SDS011;45672;51.612;5.536;2023-08-30T02:42:08;9.82;;;8.82;;
59786;SDS011;45672;51.612;5.536;2023-08-30T02:44:33;10.65;;;9.07;;
59786;SDS011;45672;51.612;5.536;2023-08-30T02:46:59;10.60;;;9.00;;
59786;SDS011;45672;51.612;5.536;2023-08-30T02:49:24;17.13;;;9.40;;
59786;SDS011;45672;51.612;5.536;2023-08-30T02:51:50;11.23;;;9.68;;
59786;SDS011;45672;51.612;5.536;2023-08-30T02:54:15;11.15;;;8.82;;
59786;SDS011;45672;51.612;5.536;2023-08-30T02:56:41;10.15;;;9.05;;
59786;SDS011;45672;51.612;5.536;2023-08-30T02:59:08;10.30;;;8.82;;
59786;SDS011;45672;51.612;5.536;2023-08-30T03:01:33;11.15;;;9.02;;
59786;SDS011;45672;51.612;5.536;2023-08-30T03:03:59;12.05;;;9.00;;
59786;SDS011;45672;51.612;5.536;2023-08-30T03:06:24;10.60;;;8.63;;
59786;SDS011;45672;51.612;5.536;2023-08-30T03:08:49;14.70;;;9.27;;
59786;SDS011;45672;51.612;5.536;2023-08-30T03:11:15;11.00;;;8.80;;
59786;SDS011;45672;51.612;5.536;2023-08-30T03:13:40;12.43;;;9.50;;
59786;SDS011;45672;51.612;5.536;2023-08-30T03:18:37;15.30;;;9.60;;
59786;SDS011;45672;51.612;5.536;2023-08-30T03:21:03;12.32;;;9.07;;
59786;SDS011;45672;51.612;5.536;2023-08-30T03:23:30;10.32;;;9.23;;
59786;SDS011;45672;51.612;5.536;2023-08-30T03:25:57;17.88;;;9.60;;
59786;SDS011;45672;51.612;5.536;2023-08-30T03:28:22;13.10;;;9.43;;
59786;SDS011;45672;51.612;5.536;2023-08-30T03:30:48;11.07;;;9.48;;
59786;SDS011;45672;51.612;5.536;2023-08-30T03:33:13;10.93;;;8.98;;
59786;SDS011;45672;51.612;5.536;2023-08-30T03:35:38;12.43;;;9.60;;
59786;SDS011;45672;51.612;5.536;2023-08-30T03:38:04;10.80;;;9.70;;
59786;SDS011;45672;51.612;5.536;2023-08-30T03:40:30;11.82;;;9.63;;
59786;SDS011;45672;51.612;5.536;2023-08-30T03:42:55;10.70;;;9.57;;
59786;SDS011;45672;51.612;5.536;2023-08-30T03:45:21;13.55;;;9.93;;
59786;SDS011;45672;51.612;5.536;2023-08-30T03:47:46;11.48;;;9.95;;
59786;SDS011;45672;51.612;5.536;2023-08-30T03:50:11;13.88;;;10.48;;
59786;SDS011;45672;51.612;5.536;2023-08-30T03:52:37;12.73;;;9.88;;
59786;SDS011;45672;51.612;5.536;2023-08-30T03:55:02;14.43;;;9.95;;
59786;SDS011;45672;51.612;5.536;2023-08-30T03:57:28;14.18;;;10.48;;
59786;SDS011;45672;51.612;5.536;2023-08-30T03:59:53;10.82;;;9.70;;
59786;SDS011;45672;51.612;5.536;2023-08-30T04:02:18;17.23;;;9.75;;
59786;SDS011;45672;51.612;5.536;2023-08-30T04:04:46;13.35;;;10.23;;
59786;SDS011;45672;51.612;5.536;2023-08-30T04:07:12;11.90;;;9.80;;
59786;SDS011;45672;51.612;5.536;2023-08-30T04:09:37;12.52;;;10.35;;
59786;SDS011;45672;51.612;5.536;2023-08-30T04:12:03;11.38;;;9.80;;
59786;SDS011;45672;51.612;5.536;2023-08-30T04:14:29;11.63;;;10.38;;
59786;SDS011;45672;51.612;5.536;2023-08-30T04:16:55;11.60;;;9.88;;
59786;SDS011;45672;51.612;5.536;2023-08-30T04:19:20;12.85;;;9.85;;
59786;SDS011;45672;51.612;5.536;2023-08-30T04:21:45;12.00;;;10.10;;
59786;SDS011;45672;51.612;5.536;2023-08-30T04:24:11;14.90;;;11.20;;
59786;SDS011;45672;51.612;5.536;2023-08-30T04:26:36;13.70;;;10.40;;
59786;SDS011;45672;51.612;5.536;2023-08-30T04:29:02;12.05;;;10.85;;
59786;SDS011;45672;51.612;5.536;2023-08-30T04:31:28;11.32;;;10.10;;
59786;SDS011;45672;51.612;5.536;2023-08-30T04:33:53;14.18;;;10.85;;
59786;SDS011;45672;51.612;5.536;2023-08-30T04:36:20;13.02;;;10.95;;
59786;SDS011;45672;51.612;5.536;2023-08-30T04:38:45;15.32;;;11.38;;
59786;SDS011;45672;51.612;5.536;2023-08-30T04:41:11;12.20;;;9.88;;
59786;SDS011;45672;51.612;5.536;2023-08-30T04:43:36;17.83;;;11.18;;
59786;SDS011;45672;51.612;5.536;2023-08-30T04:46:02;15.55;;;11.25;;
59786;SDS011;45672;51.612;5.536;2023-08-30T04:48:28;13.55;;;11.77;;
59786;SDS011;45672;51.612;5.536;2023-08-30T04:51:03;14.90;;;12.15;;
59786;SDS011;45672;51.612;5.536;2023-08-30T04:53:29;14.23;;;11.70;;
59786;SDS011;45672;51.612;5.536;2023-08-30T04:55:54;16.27;;;11.60;;
59786;SDS011;45672;51.612;5.536;2023-08-30T04:58:20;15.23;;;12.13;;
59786;SDS011;45672;51.612;5.536;2023-08-30T05:00:45;14.68;;;11.90;;
59786;SDS011;45672;51.612;5.536;2023-08-30T05:03:11;15.70;;;12.55;;
59786;SDS011;45672;51.612;5.536;2023-08-30T05:05:36;13.35;;;12.00;;
59786;SDS011;45672;51.612;5.536;2023-08-30T05:08:01;17.30;;;12.55;;
59786;SDS011;45672;51.612;5.536;2023-08-30T05:10:28;16.38;;;11.90;;
59786;SDS011;45672;51.612;5.536;2023-08-30T05:12:53;14.32;;;12.20;;
59786;SDS011;45672;51.612;5.536;2023-08-30T05:15:19;14.10;;;12.07;;
59786;SDS011;45672;51.612;5.536;2023-08-30T05:17:44;16.23;;;11.80;;
59786;SDS011;45672;51.612;5.536;2023-08-30T05:20:10;15.93;;;11.98;;
59786;SDS011;45672;51.612;5.536;2023-08-30T05:22:35;16.83;;;12.63;;
59786;SDS011;45672;51.612;5.536;2023-08-30T05:25:00;13.98;;;12.07;;
59786;SDS011;45672;51.612;5.536;2023-08-30T05:27:26;18.05;;;11.80;;
59786;SDS011;45672;51.612;5.536;2023-08-30T05:29:52;16.05;;;11.77;;
59786;SDS011;45672;51.612;5.536;2023-08-30T05:32:17;13.48;;;12.13;;
59786;SDS011;45672;51.612;5.536;2023-08-30T05:34:43;20.35;;;12.27;;
59786;SDS011;45672;51.612;5.536;2023-08-30T05:37:08;13.85;;;12.02;;
59786;SDS011;45672;51.612;5.536;2023-08-30T05:39:34;14.50;;;12.27;;
59786;SDS011;45672;51.612;5.536;2023-08-30T05:41:59;14.95;;;12.43;;
59786;SDS011;45672;51.612;5.536;2023-08-30T05:44:25;13.35;;;11.68;;
59786;SDS011;45672;51.612;5.536;2023-08-30T05:46:50;14.02;;;11.60;;
59786;SDS011;45672;51.612;5.536;2023-08-30T05:49:15;16.30;;;11.05;;
59786;SDS011;45672;51.612;5.536;2023-08-30T05:51:41;12.60;;;11.20;;
59786;SDS011;45672;51.612;5.536;2023-08-30T05:54:06;17.23;;;11.80;;
59786;SDS011;45672;51.612;5.536;2023-08-30T05:56:32;18.55;;;12.43;;
59786;SDS011;45672;51.612;5.536;2023-08-30T05:58:57;14.75;;;12.38;;
59786;SDS011;45672;51.612;5.536;2023-08-30T06:01:22;13.27;;;11.90;;
59786;SDS011;45672;51.612;5.536;2023-08-30T06:03:48;16.92;;;11.70;;
59786;SDS011;45672;51.612;5.536;2023-08-30T06:06:13;12.48;;;11.20;;
59786;SDS011;45672;51.612;5.536;2023-08-30T06:08:39;16.65;;;12.20;;
59786;SDS011;45672;51.612;5.536;2023-08-30T06:11:04;13.55;;;11.32;;
59786;SDS011;45672;51.612;5.536;2023-08-30T06:13:29;16.58;;;11.63;;
59786;SDS011;45672;51.612;5.536;2023-08-30T06:15:55;13.00;;;11.40;;
59786;SDS011;45672;51.612;5.536;2023-08-30T06:18:20;15.40;;;11.63;;
59786;SDS011;45672;51.612;5.536;2023-08-30T06:20:46;13.65;;;11.20;;
59786;SDS011;45672;51.612;5.536;2023-08-30T06:23:11;15.93;;;11.05;;
59786;SDS011;45672;51.612;5.536;2023-08-30T06:25:38;13.35;;;11.55;;
59786;SDS011;45672;51.612;5.536;2023-08-30T06:28:03;12.77;;;11.43;;
59786;SDS011;45672;51.612;5.536;2023-08-30T06:30:29;18.27;;;11.60;;
59786;SDS011;45672;51.612;5.536;2023-08-30T06:32:55;15.68;;;11.27;;
59786;SDS011;45672;51.612;5.536;2023-08-30T06:35:21;15.38;;;10.98;;
59786;SDS011;45672;51.612;5.536;2023-08-30T06:37:47;16.05;;;11.77;;
59786;SDS011;45672;51.612;5.536;2023-08-30T06:40:12;14.23;;;11.63;;
59786;SDS011;45672;51.612;5.536;2023-08-30T06:42:37;12.15;;;10.85;;
59786;SDS011;45672;51.612;5.536;2023-08-30T06:45:03;13.43;;;10.80;;
59786;SDS011;45672;51.612;5.536;2023-08-30T06:47:29;15.32;;;12.10;;
59786;SDS011;45672;51.612;5.536;2023-08-30T06:49:54;14.88;;;11.65;;
59786;SDS011;45672;51.612;5.536;2023-08-30T06:52:20;15.05;;;12.52;;
59786;SDS011;45672;51.612;5.536;2023-08-30T06:54:45;16.00;;;12.90;;
59786;SDS011;45672;51.612;5.536;2023-08-30T06:57:11;15.57;;;12.13;;
59786;SDS011;45672;51.612;5.536;2023-08-30T06:59:36;15.43;;;12.77;;
59786;SDS011;45672;51.612;5.536;2023-08-30T07:02:02;19.17;;;13.70;;
59786;SDS011;45672;51.612;5.536;2023-08-30T07:04:27;20.45;;;13.82;;
59786;SDS011;45672;51.612;5.536;2023-08-30T07:06:53;21.23;;;14.63;;
59786;SDS011;45672;51.612;5.536;2023-08-30T07:09:19;17.85;;;14.32;;
59786;SDS011;45672;51.612;5.536;2023-08-30T07:11:44;18.35;;;13.48;;
59786;SDS011;45672;51.612;5.536;2023-08-30T07:14:10;17.90;;;13.40;;
59786;SDS011;45672;51.612;5.536;2023-08-30T07:16:37;22.90;;;14.10;;
59786;SDS011;45672;51.612;5.536;2023-08-30T07:19:03;19.70;;;13.57;;
59786;SDS011;45672;51.612;5.536;2023-08-30T07:21:28;26.13;;;14.68;;
59786;SDS011;45672;51.612;5.536;2023-08-30T07:23:53;20.25;;;13.63;;
59786;SDS011;45672;51.612;5.536;2023-08-30T07:26:19;22.13;;;14.07;;
59786;SDS011;45672;51.612;5.536;2023-08-30T07:28:45;22.02;;;13.93;;
59786;SDS011;45672;51.612;5.536;2023-08-30T07:31:10;20.83;;;14.13;;
59786;SDS011;45672;51.612;5.536;2023-08-30T07:33:38;19.73;;;13.95;;
59786;SDS011;45672;51.612;5.536;2023-08-30T07:36:04;17.65;;;13.63;;
59786;SDS011;45672;51.612;5.536;2023-08-30T07:38:30;19.00;;;14.23;;
59786;SDS011;45672;51.612;5.536;2023-08-30T07:40:55;17.23;;;13.05;;
59786;SDS011;45672;51.612;5.536;2023-08-30T07:43:21;20.70;;;14.25;;
59786;SDS011;45672;51.612;5.536;2023-08-30T07:45:46;21.88;;;13.85;;
59786;SDS011;45672;51.612;5.536;2023-08-30T07:48:12;19.63;;;13.60;;
59786;SDS011;45672;51.612;5.536;2023-08-30T07:50:38;18.67;;;13.57;;
59786;SDS011;45672;51.612;5.536;2023-08-30T07:53:03;21.70;;;14.18;;
59786;SDS011;45672;51.612;5.536;2023-08-30T07:55:28;19.48;;;13.50;;
59786;SDS011;45672;51.612;5.536;2023-08-30T07:57:54;19.95;;;15.13;;
59786;SDS011;45672;51.612;5.536;2023-08-30T08:00:20;19.88;;;14.05;;
59786;SDS011;45672;51.612;5.536;2023-08-30T08:02:45;19.92;;;14.25;;
59786;SDS011;45672;51.612;5.536;2023-08-30T08:05:11;20.00;;;14.13;;
59786;SDS011;45672;51.612;5.536;2023-08-30T08:07:38;21.13;;;13.48;;
59786;SDS011;45672;51.612;5.536;2023-08-30T08:10:05;15.45;;;12.25;;
59786;SDS011;45672;51.612;5.536;2023-08-30T08:12:32;16.85;;;13.13;;
59786;SDS011;45672;51.612;5.536;2023-08-30T08:14:58;16.25;;;11.75;;
59786;SDS011;45672;51.612;5.536;2023-08-30T08:17:23;16.83;;;12.48;;
59786;SDS011;45672;51.612;5.536;2023-08-30T08:19:49;14.13;;;12.00;;
59786;SDS011;45672;51.612;5.536;2023-08-30T08:22:14;13.15;;;10.90;;
59786;SDS011;45672;51.612;5.536;2023-08-30T08:24:39;14.73;;;11.18;;
59786;SDS011;45672;51.612;5.536;2023-08-30T08:27:05;11.02;;;9.55;;
59786;SDS011;45672;51.612;5.536;2023-08-30T08:29:31;13.57;;;10.25;;
59786;SDS011;45672;51.612;5.536;2023-08-30T08:31:56;10.18;;;9.05;;
59786;SDS011;45672;51.612;5.536;2023-08-30T08:34:22;10.55;;;8.95;;
59786;SDS011;45672;51.612;5.536;2023-08-30T08:36:47;11.45;;;9.35;;
59786;SDS011;45672;51.612;5.536;2023-08-30T08:39:13;11.63;;;9.02;;
59786;SDS011;45672;51.612;5.536;2023-08-30T08:41:40;11.30;;;9.13;;
59786;SDS011;45672;51.612;5.536;2023-08-30T08:44:07;11.52;;;8.68;;
59786;SDS011;45672;51.612;5.536;2023-08-30T08:46:34;12.10;;;8.93;;
59786;SDS011;45672;51.612;5.536;2023-08-30T08:49:13;9.60;;;8.57;;
59786;SDS011;45672;51.612;5.536;2023-08-30T08:51:40;9.85;;;8.27;;
59786;SDS011;45672;51.612;5.536;2023-08-30T08:54:07;9.30;;;7.65;;
59786;SDS011;45672;51.612;5.536;2023-08-30T08:56:34;9.63;;;7.38;;
59786;SDS011;45672;51.612;5.536;2023-08-30T08:59:00;9.45;;;8.40;;
59786;SDS011;45672;51.612;5.536;2023-08-30T09:01:26;10.63;;;8.15;;
59786;SDS011;45672;51.612;5.536;2023-08-30T09:03:52;11.85;;;8.82;;
59786;SDS011;45672;51.612;5.536;2023-08-30T09:06:18;10.02;;;7.65;;
59786;SDS011;45672;51.612;5.536;2023-08-30T09:08:43;9.18;;;8.10;;
59786;SDS011;45672;51.612;5.536;2023-08-30T09:11:09;8.75;;;7.85;;
59786;SDS011;45672;51.612;5.536;2023-08-30T09:13:34;13.02;;;7.68;;
59786;SDS011;45672;51.612;5.536;2023-08-30T09:16:00;8.52;;;7.65;;
59786;SDS011;45672;51.612;5.536;2023-08-30T09:18:25;13.07;;;8.60;;
59786;SDS011;45672;51.612;5.536;2023-08-30T09:21:07;8.73;;;7.82;;
59786;SDS011;45672;51.612;5.536;2023-08-30T09:23:36;9.38;;;8.50;;
59786;SDS011;45672;51.612;5.536;2023-08-30T09:26:02;9.60;;;7.70;;
59786;SDS011;45672;51.612;5.536;2023-08-30T09:28:28;10.73;;;8.23;;
59786;SDS011;45672;51.612;5.536;2023-08-30T09:30:54;9.02;;;8.18;;
59786;SDS011;45672;51.612;5.536;2023-08-30T09:33:31;8.75;;;7.90;;
59786;SDS011;45672;51.612;5.536;2023-08-30T09:35:58;8.55;;;7.82;;
59786;SDS011;45672;51.612;5.536;2023-08-30T09:38:24;9.23;;;8.23;;
59786;SDS011;45672;51.612;5.536;2023-08-30T09:40:50;9.15;;;7.70;;
59786;SDS011;45672;51.612;5.536;2023-08-30T09:43:18;8.38;;;7.57;;
59786;SDS011;45672;51.612;5.536;2023-08-30T09:45:46;9.93;;;7.30;;
59786;SDS011;45672;51.612;5.536;2023-08-30T09:48:12;10.05;;;8.18;;
59786;SDS011;45672;51.612;5.536;2023-08-30T09:50:37;9.32;;;8.48;;
59786;SDS011;45672;51.612;5.536;2023-08-30T09:53:08;10.57;;;8.80;;
59786;SDS011;45672;51.612;5.536;2023-08-30T09:55:36;10.00;;;9.00;;
59786;SDS011;45672;51.612;5.536;2023-08-30T09:58:02;10.75;;;8.68;;
59786;SDS011;45672;51.612;5.536;2023-08-30T10:00:31;8.35;;;7.57;;
59786;SDS011;45672;51.612;5.536;2023-08-30T10:02:58;8.68;;;7.72;;
59786;SDS011;45672;51.612;5.536;2023-08-30T10:05:25;9.23;;;7.82;;
59786;SDS011;45672;51.612;5.536;2023-08-30T10:07:52;8.52;;;7.85;;
59786;SDS011;45672;51.612;5.536;2023-08-30T10:10:21;8.80;;;7.95;;
59786;SDS011;45672;51.612;5.536;2023-08-30T10:12:47;8.27;;;7.55;;
59786;SDS011;45672;51.612;5.536;2023-08-30T10:15:14;8.90;;;8.00;;
59786;SDS011;45672;51.612;5.536;2023-08-30T10:17:41;9.45;;;8.60;;
59786;SDS011;45672;51.612;5.536;2023-08-30T10:20:08;8.18;;;7.38;;
59786;SDS011;45672;51.612;5.536;2023-08-30T10:22:35;8.27;;;7.68;;
59786;SDS011;45672;51.612;5.536;2023-08-30T10:25:03;7.30;;;6.72;;
59786;SDS011;45672;51.612;5.536;2023-08-30T10:27:31;8.15;;;7.35;;
59786;SDS011;45672;51.612;5.536;2023-08-30T10:29:59;7.65;;;6.95;;
59786;SDS011;45672;51.612;5.536;2023-08-30T10:32:28;7.40;;;6.90;;
59786;SDS011;45672;51.612;5.536;2023-08-30T10:34:54;7.65;;;6.93;;
59786;SDS011;45672;51.612;5.536;2023-08-30T10:37:22;8.80;;;7.10;;
59786;SDS011;45672;51.612;5.536;2023-08-30T10:39:49;7.43;;;6.82;;
59786;SDS011;45672;51.612;5.536;2023-08-30T10:42:15;8.20;;;7.50;;
59786;SDS011;45672;51.612;5.536;2023-08-30T10:44:47;7.70;;;7.00;;
59786;SDS011;45672;51.612;5.536;2023-08-30T10:47:20;7.00;;;6.40;;
59786;SDS011;45672;51.612;5.536;2023-08-30T10:49:53;7.72;;;7.07;;
59786;SDS011;45672;51.612;5.536;2023-08-30T10:52:19;6.88;;;6.38;;
59786;SDS011;45672;51.612;5.536;2023-08-30T10:54:45;6.78;;;6.13;;
59786;SDS011;45672;51.612;5.536;2023-08-30T10:57:13;7.32;;;6.35;;
59786;SDS011;45672;51.612;5.536;2023-08-30T10:59:40;8.77;;;6.03;;
59786;SDS011;45672;51.612;5.536;2023-08-30T11:02:06;6.55;;;6.00;;
59786;SDS011;45672;51.612;5.536;2023-08-30T11:04:31;5.78;;;5.28;;
59786;SDS011;45672;51.612;5.536;2023-08-30T11:06:57;7.15;;;5.30;;
59786;SDS011;45672;51.612;5.536;2023-08-30T11:09:23;5.80;;;5.30;;
59786;SDS011;45672;51.612;5.536;2023-08-30T11:11:50;5.72;;;5.32;;
59786;SDS011;45672;51.612;5.536;2023-08-30T11:14:16;6.50;;;5.00;;
59786;SDS011;45672;51.612;5.536;2023-08-30T11:16:43;5.43;;;4.80;;
59786;SDS011;45672;51.612;5.536;2023-08-30T11:19:10;5.07;;;4.72;;
59786;SDS011;45672;51.612;5.536;2023-08-30T11:21:37;6.72;;;3.58;;
59786;SDS011;45672;51.612;5.536;2023-08-30T11:24:04;5.75;;;3.80;;
59786;SDS011;45672;51.612;5.536;2023-08-30T11:26:31;6.13;;;3.65;;
59786;SDS011;45672;51.612;5.536;2023-08-30T11:28:56;7.65;;;3.53;;
59786;SDS011;45672;51.612;5.536;2023-08-30T11:31:22;5.22;;;3.00;;
59786;SDS011;45672;51.612;5.536;2023-08-30T11:33:52;6.18;;;2.55;;
59786;SDS011;45672;51.612;5.536;2023-08-30T11:36:20;5.70;;;2.70;;
59786;SDS011;45672;51.612;5.536;2023-08-30T11:38:47;9.32;;;3.10;;
59786;SDS011;45672;51.612;5.536;2023-08-30T11:41:13;6.18;;;2.80;;
59786;SDS011;45672;51.612;5.536;2023-08-30T11:43:38;4.15;;;2.80;;
59786;SDS011;45672;51.612;5.536;2023-08-30T11:46:05;6.10;;;3.30;;
59786;SDS011;45672;51.612;5.536;2023-08-30T11:48:30;6.35;;;3.15;;
59786;SDS011;45672;51.612;5.536;2023-08-30T11:50:56;4.47;;;3.03;;
59786;SDS011;45672;51.612;5.536;2023-08-30T11:53:22;4.20;;;2.58;;
59786;SDS011;45672;51.612;5.536;2023-08-30T11:55:48;7.00;;;3.30;;
59786;SDS011;45672;51.612;5.536;2023-08-30T11:58:13;6.75;;;3.42;;
59786;SDS011;45672;51.612;5.536;2023-08-30T12:00:39;5.93;;;2.97;;
59786;SDS011;45672;51.612;5.536;2023-08-30T12:03:05;11.38;;;3.08;;
59786;SDS011;45672;51.612;5.536;2023-08-30T12:05:30;8.65;;;3.25;;
59786;SDS011;45672;51.612;5.536;2023-08-30T12:07:59;8.00;;;2.83;;
59786;SDS011;45672;51.612;5.536;2023-08-30T12:10:25;8.25;;;2.88;;
59786;SDS011;45672;51.612;5.536;2023-08-30T12:12:53;11.55;;;3.00;;
59786;SDS011;45672;51.612;5.536;2023-08-30T12:15:18;5.82;;;2.55;;
59786;SDS011;45672;51.612;5.536;2023-08-30T12:17:44;7.18;;;2.60;;
59786;SDS011;45672;51.612;5.536;2023-08-30T12:20:16;7.43;;;2.72;;
59786;SDS011;45672;51.612;5.536;2023-08-30T12:22:42;8.80;;;2.85;;
59786;SDS011;45672;51.612;5.536;2023-08-30T12:25:18;6.25;;;2.25;;
59786;SDS011;45672;51.612;5.536;2023-08-30T12:27:44;4.97;;;2.47;;
59786;SDS011;45672;51.612;5.536;2023-08-30T12:30:10;8.70;;;3.03;;
59786;SDS011;45672;51.612;5.536;2023-08-30T12:32:36;8.95;;;2.80;;
59786;SDS011;45672;51.612;5.536;2023-08-30T12:35:01;6.38;;;2.88;;
59786;SDS011;45672;51.612;5.536;2023-08-30T12:37:27;8.57;;;2.70;;
59786;SDS011;45672;51.612;5.536;2023-08-30T12:39:52;6.68;;;2.60;;
59786;SDS011;45672;51.612;5.536;2023-08-30T12:42:17;3.78;;;2.30;;
59786;SDS011;45672;51.612;5.536;2023-08-30T12:44:43;9.23;;;2.83;;
59786;SDS011;45672;51.612;5.536;2023-08-30T12:47:08;10.65;;;2.28;;
59786;SDS011;45672;51.612;5.536;2023-08-30T12:49:33;7.60;;;2.53;;
59786;SDS011;45672;51.612;5.536;2023-08-30T12:51:59;8.20;;;2.95;;
59786;SDS011;45672;51.612;5.536;2023-08-30T12:54:25;5.55;;;2.20;;
59786;SDS011;45672;51.612;5.536;2023-08-30T12:56:50;7.78;;;2.38;;
59786;SDS011;45672;51.612;5.536;2023-08-30T12:59:15;5.38;;;2.22;;
59786;SDS011;45672;51.612;5.536;2023-08-30T13:01:40;6.90;;;2.40;;
59786;SDS011;45672;51.612;5.536;2023-08-30T13:04:06;7.63;;;2.63;;
59786;SDS011;45672;51.612;5.536;2023-08-30T13:06:32;5.05;;;2.45;;
59786;SDS011;45672;51.612;5.536;2023-08-30T13:08:57;11.07;;;2.80;;
59786;SDS011;45672;51.612;5.536;2023-08-30T13:11:23;10.48;;;2.85;;
59786;SDS011;45672;51.612;5.536;2023-08-30T13:13:51;6.65;;;2.65;;
59786;SDS011;45672;51.612;5.536;2023-08-30T13:16:16;7.90;;;2.90;;
59786;SDS011;45672;51.612;5.536;2023-08-30T13:18:42;9.63;;;2.60;;
59786;SDS011;45672;51.612;5.536;2023-08-30T13:21:07;5.75;;;2.47;;
59786;SDS011;45672;51.612;5.536;2023-08-30T13:23:32;7.45;;;2.33;;
59786;SDS011;45672;51.612;5.536;2023-08-30T13:25:57;6.32;;;2.35;;
59786;SDS011;45672;51.612;5.536;2023-08-30T13:28:23;7.15;;;2.97;;
59786;SDS011;45672;51.612;5.536;2023-08-30T13:30:48;6.88;;;3.35;;
59786;SDS011;45672;51.612;5.536;2023-08-30T13:33:15;9.20;;;2.30;;
59786;SDS011;45672;51.612;5.536;2023-08-30T13:35:40;7.15;;;2.05;;
59786;SDS011;45672;51.612;5.536;2023-08-30T13:38:06;4.32;;;2.40;;
59786;SDS011;45672;51.612;5.536;2023-08-30T13:40:31;5.88;;;2.38;;
59786;SDS011;45672;51.612;5.536;2023-08-30T13:42:56;8.88;;;2.70;;
59786;SDS011;45672;51.612;5.536;2023-08-30T13:45:22;5.20;;;2.10;;
59786;SDS011;45672;51.612;5.536;2023-08-30T13:47:47;11.07;;;2.78;;
59786;SDS011;45672;51.612;5.536;2023-08-30T13:50:12;5.47;;;2.47;;
59786;SDS011;45672;51.612;5.536;2023-08-30T13:52:38;5.38;;;2.20;;
59786;SDS011;45672;51.612;5.536;2023-08-30T13:55:03;8.23;;;2.60;;
59786;SDS011;45672;51.612;5.536;2023-08-30T13:57:29;7.72;;;2.30;;
59786;SDS011;45672;51.612;5.536;2023-08-30T13:59:54;6.55;;;2.60;;
59786;SDS011;45672;51.612;5.536;2023-08-30T14:02:20;6.82;;;2.30;;
59786;SDS011;45672;51.612;5.536;2023-08-30T14:04:45;4.85;;;1.90;;
59786;SDS011;45672;51.612;5.536;2023-08-30T14:07:10;2.85;;;1.90;;
59786;SDS011;45672;51.612;5.536;2023-08-30T14:09:37;3.78;;;2.00;;
59786;SDS011;45672;51.612;5.536;2023-08-30T14:12:02;6.20;;;2.45;;
59786;SDS011;45672;51.612;5.536;2023-08-30T14:14:29;4.57;;;2.08;;
59786;SDS011;45672;51.612;5.536;2023-08-30T14:16:54;5.00;;;1.60;;
59786;SDS011;45672;51.612;5.536;2023-08-30T14:19:19;8.35;;;2.33;;
59786;SDS011;45672;51.612;5.536;2023-08-30T14:21:45;7.05;;;1.80;;
59786;SDS011;45672;51.612;5.536;2023-08-30T14:24:10;4.95;;;1.70;;
59786;SDS011;45672;51.612;5.536;2023-08-30T14:26:36;5.63;;;1.48;;
59786;SDS011;45672;51.612;5.536;2023-08-30T14:29:01;3.03;;;1.30;;
59786;SDS011;45672;51.612;5.536;2023-08-30T14:31:27;9.80;;;2.63;;
59786;SDS011;45672;51.612;5.536;2023-08-30T14:33:55;7.13;;;2.60;;